Time;durP1;ratioP1;P1;durP2;ratioP2;P2;SDS_P1;SDS_P2;PMS_P1;PMS_P2;Temp;Humidity;BMP_temperature;BMP_pressure;BME280_temperature;BME280_humidity;BME280_pressure;Samples;Min_cycle;Max_cycle;Signal;HPM_P1;HPM_P2
2022/03/06 00:00:17;;;;;;;25.27;12.32;;;;;;;0.64;83.63;102362.75;5053064;28;20045;-60
2022/03/06 00:02:45;;;;;;;28.67;14.48;;;;;;;0.64;83.80;102367.94;5051515;28;20061;-60
2022/03/06 00:05:13;;;;;;;26.13;12.68;;;;;;;0.63;83.84;102359.31;5052469;28;20107;-59
2022/03/06 00:07:41;;;;;;;26.60;12.73;;;;;;;0.66;83.53;102368.81;5052055;28;20044;-58
2022/03/06 00:10:10;;;;;;;27.70;12.93;;;;;;;0.59;83.98;102372.25;5052206;28;20044;-58
2022/03/06 00:12:41;;;;;;;26.85;12.77;;;;;;;0.62;83.35;102361.91;5052577;28;20045;-59
2022/03/06 00:15:09;;;;;;;26.63;12.27;;;;;;;0.58;83.32;102368.78;5052810;28;20099;-59
2022/03/06 00:17:37;;;;;;;25.10;12.90;;;;;;;0.55;83.27;102361.03;5052583;28;20115;-59
2022/03/06 00:20:08;;;;;;;26.27;11.25;;;;;;;0.47;83.74;102371.38;5052648;28;20045;-59
2022/03/06 00:22:37;;;;;;;26.90;12.55;;;;;;;0.47;84.25;102379.13;5052493;28;20476;-59
2022/03/06 00:25:06;;;;;;;27.45;12.80;;;;;;;0.43;84.46;102374.81;5052424;28;20044;-58
2022/03/06 00:27:35;;;;;;;28.23;12.80;;;;;;;0.42;84.78;102380.84;5052181;28;20057;-58
2022/03/06 00:30:06;;;;;;;31.23;13.77;;;;;;;0.41;84.50;102381.72;5052411;28;20087;-58
2022/03/06 00:32:34;;;;;;;27.90;13.10;;;;;;;0.34;85.15;102379.97;5052206;28;20048;-53
2022/03/06 00:35:02;;;;;;;26.52;12.30;;;;;;;0.31;85.38;102385.16;5052064;28;20052;-52
2022/03/06 00:37:30;;;;;;;28.65;13.50;;;;;;;0.25;85.57;102385.16;5050789;28;20065;-59
2022/03/06 00:39:59;;;;;;;26.85;13.13;;;;;;;0.20;86.02;102390.28;5052009;28;20518;-58
2022/03/06 00:42:27;;;;;;;26.83;12.95;;;;;;;0.19;86.08;102387.69;5052090;28;20087;-58
2022/03/06 00:44:55;;;;;;;25.58;13.25;;;;;;;0.11;86.62;102388.56;5052032;28;20049;-58
2022/03/06 00:47:25;;;;;;;25.83;12.77;;;;;;;0.08;86.88;102388.56;5052023;28;20501;-59
2022/03/06 00:49:53;;;;;;;29.33;13.35;;;;;;;-0.01;87.60;102388.50;5051754;28;20037;-59
2022/03/06 00:52:21;;;;;;;29.20;12.82;;;;;;;-0.04;87.68;102399.72;5052064;28;20098;-59
2022/03/06 00:54:49;;;;;;;24.85;12.30;;;;;;;-0.02;87.24;102399.72;5051067;28;20049;-59
2022/03/06 00:57:17;;;;;;;29.10;14.55;;;;;;;-0.08;87.99;102405.72;5052172;28;20045;-59
2022/03/06 00:59:45;;;;;;;27.00;13.18;;;;;;;-0.09;88.18;102400.56;5051023;28;20084;-58
2022/03/06 01:02:13;;;;;;;25.13;13.20;;;;;;;-0.11;88.00;102407.44;5052106;28;20099;-59
2022/03/06 01:04:43;;;;;;;24.48;12.27;;;;;;;-0.10;88.03;102406.56;5051775;28;20091;-59
2022/03/06 01:07:11;;;;;;;25.98;13.13;;;;;;;-0.13;88.38;102404.84;5052170;28;20491;-59
2022/03/06 01:09:39;;;;;;;26.30;12.38;;;;;;;-0.16;88.43;102404.84;5051932;28;20396;-59
2022/03/06 01:12:08;;;;;;;27.98;13.32;;;;;;;-0.06;88.12;102398.81;5051690;28;20053;-58
2022/03/06 01:14:36;;;;;;;24.70;12.73;;;;;;;-0.14;88.15;102404.84;5055690;28;20049;-58
2022/03/06 01:17:05;;;;;;;26.77;13.18;;;;;;;-0.20;88.44;102408.25;5055776;28;20120;-60
2022/03/06 01:19:33;;;;;;;27.20;13.90;;;;;;;-0.24;88.88;102407.38;5055888;28;20041;-59
2022/03/06 01:22:02;;;;;;;27.27;13.43;;;;;;;-0.27;88.93;102404.78;5054946;28;20069;-60
2022/03/06 01:24:30;;;;;;;24.73;12.07;;;;;;;-0.18;88.52;102411.69;5055718;28;20072;-60
2022/03/06 01:26:59;;;;;;;25.20;12.70;;;;;;;-0.20;88.44;102413.44;5055691;28;20040;-60
2022/03/06 01:29:27;;;;;;;26.88;12.70;;;;;;;-0.22;88.58;102408.25;5055598;28;20055;-60
2022/03/06 01:31:55;;;;;;;26.88;13.10;;;;;;;-0.22;88.55;102418.59;5055732;28;20045;-55
2022/03/06 01:34:23;;;;;;;26.65;12.75;;;;;;;-0.27;88.75;102414.22;5055392;28;20080;-59
2022/03/06 01:36:51;;;;;;;24.70;12.35;;;;;;;-0.25;88.92;102413.41;5055353;28;20605;-52
2022/03/06 01:39:21;;;;;;;25.92;12.25;;;;;;;-0.30;88.66;102415.13;5055423;28;20057;-60
2022/03/06 01:41:49;;;;;;;24.38;12.73;;;;;;;-0.37;89.18;102413.31;5055456;28;20045;-60
2022/03/06 01:44:17;;;;;;;28.88;12.80;;;;;;;-0.38;89.26;102419.38;5055330;28;20057;-49
2022/03/06 01:46:47;;;;;;;27.77;12.52;;;;;;;-0.42;89.51;102417.63;5055589;28;20059;-51
2022/03/06 01:49:15;;;;;;;27.80;13.82;;;;;;;-0.52;89.95;102414.09;5055294;28;20049;-51
2022/03/06 01:51:44;;;;;;;23.35;12.30;;;;;;;-0.47;89.73;102416.72;5055263;28;20041;-54
2022/03/06 01:54:13;;;;;;;26.77;12.23;;;;;;;-0.50;89.50;102417.56;5055353;28;20045;-60
2022/03/06 01:56:43;;;;;;;24.27;11.60;;;;;;;-0.53;89.73;102415.84;5054992;28;20303;-60
2022/03/06 01:59:11;;;;;;;24.38;12.93;;;;;;;-0.56;89.96;102423.56;5054960;28;20112;-51
2022/03/06 02:01:39;;;;;;;26.90;13.45;;;;;;;-0.57;90.11;102419.25;5054796;28;20065;-60
2022/03/06 02:04:07;;;;;;;27.58;12.23;;;;;;;-0.59;90.18;102413.19;5053439;28;20060;-60
2022/03/06 02:06:37;;;;;;;26.85;12.80;;;;;;;-0.61;90.26;102414.91;5054868;28;20053;-53
2022/03/06 02:09:05;;;;;;;25.83;12.27;;;;;;;-0.68;90.87;102418.31;5054487;28;20049;-51
2022/03/06 02:11:33;;;;;;;27.45;12.98;;;;;;;-0.65;90.86;102423.50;5054875;28;20130;-51
2022/03/06 02:14:03;;;;;;;25.45;12.48;;;;;;;-0.70;91.40;102420.03;5054850;28;20056;-52
2022/03/06 02:16:33;;;;;;;24.85;12.95;;;;;;;-0.65;91.41;102428.69;5054950;28;20597;-60
2022/03/06 02:19:01;;;;;;;25.48;12.27;;;;;;;-0.75;91.26;102416.53;5054775;28;20144;-60
2022/03/06 02:21:31;;;;;;;23.38;12.52;;;;;;;-0.74;91.01;102413.97;5053258;28;20141;-60
2022/03/06 02:23:59;;;;;;;27.27;13.43;;;;;;;-0.76;91.15;102420.84;5054203;28;20503;-50
2022/03/06 02:26:27;;;;;;;23.95;12.07;;;;;;;-0.80;91.22;102413.06;5054347;28;20541;-60
2022/03/06 02:28:55;;;;;;;23.00;12.57;;;;;;;-0.81;91.25;102416.50;5054428;28;20071;-60
2022/03/06 02:31:24;;;;;;;22.83;12.07;;;;;;;-0.84;91.17;102416.50;5054348;28;20049;-53
2022/03/06 02:33:52;;;;;;;24.60;11.93;;;;;;;-0.80;90.99;102413.06;5054720;28;20092;-59
2022/03/06 02:36:20;;;;;;;23.30;12.65;;;;;;;-0.83;91.32;102421.66;5054441;28;20107;-51
2022/03/06 02:38:51;;;;;;;27.08;13.40;;;;;;;-0.82;91.08;102419.94;5053049;28;20052;-51
2022/03/06 02:41:19;;;;;;;24.13;12.07;;;;;;;-0.86;91.16;102419.91;5054604;28;20476;-53
2022/03/06 02:43:47;;;;;;;23.15;12.45;;;;;;;-0.78;90.64;102427.72;5054478;28;20091;-60
2022/03/06 02:46:15;;;;;;;24.63;12.98;;;;;;;-0.82;90.60;102423.38;5054416;28;20049;-60
2022/03/06 02:48:44;;;;;;;21.67;12.52;;;;;;;-0.85;90.31;102415.59;5054040;28;20403;-51
2022/03/06 02:51:12;;;;;;;22.52;12.75;;;;;;;-0.93;90.80;102417.25;5053855;28;20057;-60
2022/03/06 02:53:40;;;;;;;22.27;12.70;;;;;;;-0.88;90.82;102426.78;5054278;28;20515;-60
2022/03/06 02:56:10;;;;;;;21.52;12.45;;;;;;;-0.99;91.80;102427.56;5052797;28;20484;-59
2022/03/06 02:58:39;;;;;;;25.92;12.15;;;;;;;-0.91;91.63;102423.31;5054075;28;20523;-60
2022/03/06 03:01:08;;;;;;;24.30;12.68;;;;;;;-0.97;91.90;102425.84;5053935;28;20098;-59
2022/03/06 03:03:39;;;;;;;23.20;12.23;;;;;;;-1.06;92.11;102419.75;5053651;28;20060;-59
2022/03/06 03:06:08;;;;;;;24.65;13.25;;;;;;;-1.07;91.97;102419.75;5053779;28;20052;-53
2022/03/06 03:08:36;;;;;;;22.85;12.68;;;;;;;-1.03;91.83;102419.75;5053800;28;20538;-59
2022/03/06 03:11:04;;;;;;;23.30;12.38;;;;;;;-1.08;91.98;102421.47;5053823;28;20056;-59
2022/03/06 03:13:33;;;;;;;25.38;12.63;;;;;;;-1.12;92.04;102427.44;5053769;28;20496;-54
2022/03/06 03:16:02;;;;;;;24.27;11.80;;;;;;;-1.08;91.46;102423.16;5053789;28;20053;-60
2022/03/06 03:18:30;;;;;;;26.77;12.32;;;;;;;-1.10;91.85;102424.88;5052835;28;20052;-59
2022/03/06 03:20:58;;;;;;;24.23;12.43;;;;;;;-1.11;92.24;102430.91;5053509;28;20053;-52
2022/03/06 03:23:27;;;;;;;20.40;12.38;;;;;;;-1.18;92.16;102427.41;5053619;28;20045;-59
2022/03/06 03:25:55;;;;;;;24.60;12.60;;;;;;;-1.16;91.95;102429.97;5053457;28;20064;-54
2022/03/06 03:28:23;;;;;;;25.23;12.90;;;;;;;-1.16;92.25;102429.97;5053428;28;20131;-59
2022/03/06 03:30:53;;;;;;;26.27;12.50;;;;;;;-1.26;92.93;102429.91;5053306;28;20040;-59
2022/03/06 03:33:21;;;;;;;24.95;12.07;;;;;;;-1.27;92.59;102428.19;5053323;28;20403;-51
2022/03/06 03:35:49;;;;;;;23.85;12.65;;;;;;;-1.29;93.13;102429.03;5053370;28;20041;-60
2022/03/06 03:38:17;;;;;;;22.45;12.27;;;;;;;-1.30;92.87;102428.13;5052875;28;20068;-59
2022/03/06 03:40:47;;;;;;;25.60;13.10;;;;;;;-1.35;93.32;102427.22;5052366;28;20523;-59
2022/03/06 03:43:15;;;;;;;22.90;13.07;;;;;;;-1.38;93.05;102424.63;5053134;28;20507;-59
2022/03/06 03:45:43;;;;;;;21.65;12.15;;;;;;;-1.32;92.84;102435.00;5052970;28;20346;-59
2022/03/06 03:48:12;;;;;;;24.13;11.88;;;;;;;-1.36;92.87;102434.09;5053097;28;20037;-59
2022/03/06 03:50:41;;;;;;;21.73;12.32;;;;;;;-1.34;92.66;102434.13;5053329;28;20056;-59
2022/03/06 03:53:09;;;;;;;23.88;12.20;;;;;;;-1.34;93.16;102441.88;5053045;28;20041;-59
2022/03/06 03:55:37;;;;;;;25.77;12.88;;;;;;;-1.40;92.96;102431.50;5052745;28;20056;-59
2022/03/06 03:58:05;;;;;;;25.42;12.70;;;;;;;-1.37;93.39;102441.84;5052852;28;20049;-59
2022/03/06 04:00:33;;;;;;;22.60;12.55;;;;;;;-1.38;92.86;102432.34;5052695;28;20091;-59
2022/03/06 04:03:02;;;;;;;22.10;11.55;;;;;;;-1.42;92.96;102433.19;5052487;28;20511;-59
2022/03/06 04:05:31;;;;;;;21.95;12.40;;;;;;;-1.46;92.96;102432.31;5052739;28;20045;-59
2022/03/06 04:07:59;;;;;;;22.20;12.88;;;;;;;-1.44;92.70;102435.75;5052647;28;20044;-59
2022/03/06 04:10:28;;;;;;;24.58;13.32;;;;;;;-1.50;93.09;102437.41;5052733;28;20083;-59
2022/03/06 04:12:56;;;;;;;23.38;11.60;;;;;;;-1.50;93.26;102433.13;5052656;28;20041;-59
2022/03/06 04:15:24;;;;;;;23.05;12.43;;;;;;;-1.47;93.50;102437.41;5051754;28;20091;-59
2022/03/06 04:17:52;;;;;;;26.65;12.68;;;;;;;-1.45;93.55;102439.16;5052687;28;20060;-59
2022/03/06 04:20:20;;;;;;;24.42;11.65;;;;;;;-1.47;93.46;102440.88;5052556;28;20037;-59
2022/03/06 04:22:50;;;;;;;22.77;11.65;;;;;;;-1.51;94.11;102454.59;5051543;28;20148;-59
2022/03/06 04:25:18;;;;;;;23.50;11.43;;;;;;;-1.53;93.75;102451.13;5052522;28;20078;-59
2022/03/06 04:27:46;;;;;;;23.35;12.20;;;;;;;-1.50;94.09;102458.03;5052253;28;20049;-59
2022/03/06 04:30:15;;;;;;;22.58;12.25;;;;;;;-1.53;94.04;102466.63;5052183;28;20056;-59
2022/03/06 04:32:43;;;;;;;23.08;12.50;;;;;;;-1.57;94.42;102468.31;5052020;28;20040;-58
2022/03/06 04:35:12;;;;;;;23.33;12.10;;;;;;;-1.53;94.11;102458.88;5052148;28;20132;-58
2022/03/06 04:37:40;;;;;;;25.20;12.40;;;;;;;-1.56;93.91;102472.59;5052334;28;20037;-58
2022/03/06 04:40:10;;;;;;;24.02;11.52;;;;;;;-1.61;94.56;102479.44;5052142;28;20045;-58
2022/03/06 04:42:38;;;;;;;28.27;12.50;;;;;;;-1.67;94.96;102474.19;5052238;28;20049;-58
2022/03/06 04:45:08;;;;;;;21.15;11.57;;;;;;;-1.69;94.65;102475.91;5052158;28;20399;-59
2022/03/06 04:47:36;;;;;;;22.95;12.02;;;;;;;-1.71;94.50;102483.59;5051984;28;20055;-58
2022/03/06 04:50:05;;;;;;;24.42;12.50;;;;;;;-1.70;94.65;102481.91;5052352;28;20438;-58
2022/03/06 04:52:33;;;;;;;21.33;11.88;;;;;;;-1.66;94.14;102490.53;5052073;28;20053;-59
2022/03/06 04:55:01;;;;;;;22.67;11.70;;;;;;;-1.67;94.19;102489.69;5052258;28;20052;-59
2022/03/06 04:57:31;;;;;;;22.55;12.05;;;;;;;-1.68;94.32;102492.25;5052023;28;20539;-53
2022/03/06 04:59:59;;;;;;;24.15;12.80;;;;;;;-1.68;94.05;102500.84;5052212;28;20045;-55
2022/03/06 05:02:27;;;;;;;21.75;11.82;;;;;;;-1.66;94.61;102498.28;5050946;28;20049;-53
2022/03/06 05:04:56;;;;;;;22.95;12.45;;;;;;;-1.63;94.82;102500.91;5051628;28;20065;-55
2022/03/06 05:07:24;;;;;;;23.33;11.45;;;;;;;-1.61;93.83;102507.84;5051957;28;20052;-59
2022/03/06 05:09:52;;;;;;;20.25;11.40;;;;;;;-1.65;94.07;102507.75;5051593;28;20041;-59
2022/03/06 05:12:20;;;;;;;25.80;12.55;;;;;;;-1.71;94.61;102511.13;5051815;28;20435;-60
2022/03/06 05:14:50;;;;;;;25.25;11.50;;;;;;;-1.70;94.25;102510.28;5047884;28;20099;-54
2022/03/06 05:17:19;;;;;;;21.92;11.60;;;;;;;-1.70;94.34;102506.00;5047768;28;20111;-53
2022/03/06 05:19:47;;;;;;;22.13;11.57;;;;;;;-1.71;94.77;102506.81;5051659;28;20125;-56
2022/03/06 05:22:15;;;;;;;21.10;12.05;;;;;;;-1.66;94.65;102516.34;5051776;28;20392;-51
2022/03/06 05:24:43;;;;;;;23.15;11.27;;;;;;;-1.70;95.19;102507.72;5051504;28;20487;-50
2022/03/06 05:27:11;;;;;;;24.58;12.98;;;;;;;-1.68;95.67;102513.75;5051567;28;20060;-60
2022/03/06 05:29:39;;;;;;;24.23;12.30;;;;;;;-1.67;95.71;102512.91;5051490;28;20103;-50
2022/03/06 05:32:09;;;;;;;21.52;11.65;;;;;;;-1.66;95.99;102513.75;5051713;28;20492;-60
2022/03/06 05:34:39;;;;;;;24.27;13.10;;;;;;;-1.68;95.70;102508.59;5050333;28;20045;-53
2022/03/06 05:37:07;;;;;;;24.25;13.55;;;;;;;-1.72;96.19;102512.84;5051517;28;20057;-60
2022/03/06 05:39:36;;;;;;;23.02;12.18;;;;;;;-1.71;96.52;102518.88;5051568;28;20045;-60
2022/03/06 05:42:05;;;;;;;21.55;11.43;;;;;;;-1.69;96.03;102522.34;5051927;28;20061;-50
2022/03/06 05:44:33;;;;;;;24.50;12.90;;;;;;;-1.66;96.57;102519.81;5051572;28;20124;-60
2022/03/06 05:47:01;;;;;;;21.83;11.45;;;;;;;-1.69;96.42;102522.34;5051306;28;20049;-50
2022/03/06 05:49:31;;;;;;;23.42;12.65;;;;;;;-1.64;96.28;102515.50;5050201;28;20068;-51
2022/03/06 05:51:59;;;;;;;22.10;11.77;;;;;;;-1.66;95.87;102524.97;5051649;28;20408;-51
2022/03/06 05:54:27;;;;;;;24.75;12.88;;;;;;;-1.68;96.27;102533.53;5051171;28;20479;-52
2022/03/06 05:56:55;;;;;;;20.95;11.73;;;;;;;-1.76;96.27;102530.84;5051230;28;20512;-59
2022/03/06 05:59:23;;;;;;;22.95;11.75;;;;;;;-1.80;96.57;102527.38;5049703;28;20044;-53
2022/03/06 06:01:51;;;;;;;22.17;11.25;;;;;;;-1.74;96.31;102531.75;5054576;28;20045;-52
2022/03/06 06:04:20;;;;;;;22.60;11.80;;;;;;;-1.78;96.55;102533.41;5054793;28;20539;-51
2022/03/06 06:06:49;;;;;;;21.65;12.43;;;;;;;-1.75;96.58;102540.31;5053752;28;20060;-59
2022/03/06 06:09:18;;;;;;;21.30;11.77;;;;;;;-1.78;96.22;102546.31;5055155;28;20056;-50
2022/03/06 06:11:46;;;;;;;24.15;12.18;;;;;;;-1.80;96.79;102558.31;5053291;28;20049;-51
2022/03/06 06:14:14;;;;;;;22.23;12.13;;;;;;;-1.80;96.86;102555.75;5055182;28;20088;-50
2022/03/06 06:16:47;;;;;;;20.55;11.15;;;;;;;-1.77;96.67;102550.63;5054801;28;20060;-60
2022/03/06 06:19:15;;;;;;;21.85;12.23;;;;;;;-1.84;97.13;102558.25;5053429;28;20047;-60
2022/03/06 06:21:43;;;;;;;24.40;12.15;;;;;;;-1.85;97.46;102561.66;5054544;28;20434;-60
2022/03/06 06:24:14;;;;;;;23.17;12.13;;;;;;;-1.83;97.54;102566.00;5054672;28;20041;-53
2022/03/06 06:26:42;;;;;;;23.30;12.43;;;;;;;-1.79;97.23;102569.50;5054583;28;20048;-59
2022/03/06 06:29:12;;;;;;;22.55;11.55;;;;;;;-1.76;96.92;102569.53;5054581;28;20045;-53
2022/03/06 06:31:41;;;;;;;23.90;11.63;;;;;;;-1.78;97.55;102577.25;5054187;28;20051;-55
2022/03/06 06:34:12;;;;;;;22.67;12.75;;;;;;;-1.75;97.10;102576.44;5054461;28;20392;-55
2022/03/06 06:36:40;;;;;;;22.63;12.32;;;;;;;-1.74;98.23;102578.19;5054347;28;20041;-59
2022/03/06 06:39:11;;;;;;;21.45;12.77;;;;;;;-1.75;98.50;102584.19;5053912;28;20049;-53
2022/03/06 06:41:41;;;;;;;20.88;12.15;;;;;;;-1.82;99.50;102588.38;5054225;28;20045;-51
2022/03/06 06:44:11;;;;;;;26.13;12.50;;;;;;;-1.87;99.65;102590.91;5053802;28;20069;-48
2022/03/06 06:46:39;;;;;;;22.75;13.13;;;;;;;-1.86;100.00;102591.75;5053577;28;20123;-54
2022/03/06 06:49:07;;;;;;;25.27;13.48;;;;;;;-1.89;100.00;102594.31;5054058;28;20032;-54
2022/03/06 06:51:36;;;;;;;22.02;12.55;;;;;;;-1.82;100.00;102592.69;5054188;28;20451;-53
2022/03/06 06:54:04;;;;;;;23.30;12.43;;;;;;;-1.88;100.00;102594.31;5054213;28;20098;-54
2022/03/06 06:56:33;;;;;;;23.73;13.57;;;;;;;-1.95;100.00;102597.66;5054181;28;20060;-52
2022/03/06 06:59:02;;;;;;;26.95;12.95;;;;;;;-1.93;100.00;102601.13;5053836;28;20045;-54
2022/03/06 07:01:30;;;;;;;22.08;12.85;;;;;;;-1.96;100.00;102606.25;5054055;28;20045;-54
2022/03/06 07:03:58;;;;;;;23.90;14.07;;;;;;;-1.92;100.00;102607.16;5053450;28;20085;-53
2022/03/06 07:06:27;;;;;;;21.75;13.30;;;;;;;-1.87;100.00;102616.69;5053681;28;20051;-53
2022/03/06 07:08:55;;;;;;;25.27;13.70;;;;;;;-1.83;100.00;102609.84;5053902;28;20049;-53
2022/03/06 07:11:23;;;;;;;24.58;13.85;;;;;;;-1.73;100.00;102610.88;5053496;28;20118;-52
2022/03/06 07:13:51;;;;;;;24.75;14.05;;;;;;;-1.71;100.00;102615.19;5053536;28;20041;-50
2022/03/06 07:16:20;;;;;;;22.73;14.02;;;;;;;-1.67;100.00;102621.28;5053425;28;20499;-54
2022/03/06 07:18:48;;;;;;;23.60;13.50;;;;;;;-1.59;100.00;102621.41;5053637;28;20044;-53
2022/03/06 07:21:17;;;;;;;23.90;13.57;;;;;;;-1.53;100.00;102626.63;5053526;28;20502;-53
2022/03/06 07:23:45;;;;;;;22.33;12.70;;;;;;;-1.45;100.00;102630.16;5053698;28;20045;-52
2022/03/06 07:26:13;;;;;;;21.45;13.32;;;;;;;-1.40;100.00;102628.53;5053296;28;20156;-52
2022/03/06 07:28:41;;;;;;;23.15;13.23;;;;;;;-1.25;100.00;102621.84;5053168;28;20052;-52
2022/03/06 07:31:09;;;;;;;22.73;12.52;;;;;;;-1.21;100.00;102629.63;5053267;28;20056;-53
2022/03/06 07:33:39;;;;;;;22.27;12.15;;;;;;;-1.14;100.00;102634.88;5053509;28;20045;-50
2022/03/06 07:36:07;;;;;;;20.52;12.38;;;;;;;-1.05;100.00;102638.44;5052150;28;20049;-51
2022/03/06 07:38:35;;;;;;;22.85;12.45;;;;;;;-0.94;100.00;102645.44;5053211;28;20045;-52
2022/03/06 07:41:03;;;;;;;22.30;12.82;;;;;;;-0.86;100.00;102646.38;5053204;28;20048;-54
2022/03/06 07:43:31;;;;;;;21.48;12.48;;;;;;;-0.84;100.00;102646.44;5053241;28;20824;-53
2022/03/06 07:45:59;;;;;;;23.77;13.77;;;;;;;-0.72;100.00;102650.00;5053177;28;20067;-53
2022/03/06 07:48:27;;;;;;;21.85;11.98;;;;;;;-0.70;100.00;102658.63;5053152;28;20052;-55
2022/03/06 07:50:57;;;;;;;20.45;12.73;;;;;;;-0.61;100.00;102668.22;5052857;28;20045;-55
2022/03/06 07:53:25;;;;;;;22.77;12.10;;;;;;;-0.58;99.73;102657.03;5052893;28;20111;-60
2022/03/06 07:55:53;;;;;;;22.25;12.13;;;;;;;-0.54;99.82;102657.06;5053057;28;20496;-53
2022/03/06 07:58:22;;;;;;;18.45;11.65;;;;;;;-0.33;99.11;102665.03;5053335;28;20045;-53
2022/03/06 08:00:50;;;;;;;19.35;11.75;;;;;;;-0.23;99.37;102664.25;5052824;28;20045;-60
2022/03/06 08:03:18;;;;;;;20.05;11.35;;;;;;;-0.10;98.27;102668.69;5052937;28;20048;-51
2022/03/06 08:05:46;;;;;;;20.65;12.00;;;;;;;-0.06;98.18;102675.63;5052367;28;20053;-59
2022/03/06 08:08:16;;;;;;;18.85;11.80;;;;;;;0.11;97.39;102680.06;5053149;28;20049;-59
2022/03/06 08:10:44;;;;;;;19.10;11.95;;;;;;;0.27;96.95;102675.88;5052694;28;20053;-55
2022/03/06 08:13:12;;;;;;;20.33;11.77;;;;;;;0.32;96.60;102684.53;5052777;28;20052;-54
2022/03/06 08:15:40;;;;;;;17.65;11.27;;;;;;;0.58;96.26;102678.69;5052613;28;20041;-61
2022/03/06 08:18:08;;;;;;;18.60;11.38;;;;;;;0.68;94.77;102688.22;5052703;28;20140;-60
2022/03/06 08:20:37;;;;;;;16.50;10.57;;;;;;;0.77;94.47;102692.59;5052561;28;20064;-56
2022/03/06 08:23:05;;;;;;;16.20;10.20;;;;;;;1.17;93.13;102685.88;5051851;28;20063;-59
2022/03/06 08:25:34;;;;;;;16.08;9.70;;;;;;;1.47;91.28;102686.81;5052594;28;20048;-60
2022/03/06 08:28:03;;;;;;;17.15;9.90;;;;;;;1.55;90.39;102693.75;5052619;28;20045;-54
2022/03/06 08:30:31;;;;;;;16.73;9.82;;;;;;;1.39;89.15;102693.72;5052609;28;20056;-59
2022/03/06 08:32:59;;;;;;;17.65;9.77;;;;;;;1.51;89.29;102690.28;5052307;28;20044;-54
2022/03/06 08:35:27;;;;;;;16.40;9.80;;;;;;;1.93;88.54;102700.72;5052014;28;20492;-54
2022/03/06 08:37:55;;;;;;;17.17;9.20;;;;;;;2.09;87.06;102702.47;5052286;28;20087;-59
2022/03/06 08:40:24;;;;;;;16.40;9.07;;;;;;;2.09;86.16;102696.41;5052352;28;20041;-59
2022/03/06 08:42:53;;;;;;;14.85;9.27;;;;;;;2.38;85.46;102704.16;5052091;28;20052;-58
2022/03/06 08:45:24;;;;;;;14.98;8.95;;;;;;;2.56;84.72;102695.47;5052281;28;20086;-51
2022/03/06 08:47:52;;;;;;;13.65;8.65;;;;;;;2.95;83.05;102690.19;5051584;28;20106;-53
2022/03/06 08:50:21;;;;;;;16.75;8.85;;;;;;;2.83;81.97;102693.69;5051676;28;20064;-53
2022/03/06 08:52:49;;;;;;;13.40;8.05;;;;;;;2.82;82.01;102687.63;5051647;28;20049;-53
2022/03/06 08:55:17;;;;;;;15.07;8.52;;;;;;;2.98;81.32;102684.97;5051954;28;20044;-54
2022/03/06 08:57:45;;;;;;;13.75;7.95;;;;;;;3.19;80.88;102694.41;5052119;28;20497;-52
2022/03/06 09:00:18;;;;;;;12.15;8.10;;;;;;;3.11;80.22;102691.84;5052610;28;20055;-53
2022/03/06 09:02:46;;;;;;;14.18;8.30;;;;;;;3.07;79.86;102695.34;5052575;28;20538;-54
2022/03/06 09:05:14;;;;;;;14.10;8.15;;;;;;;3.17;79.47;102697.00;5051968;28;20049;-54
2022/03/06 09:07:42;;;;;;;15.48;7.55;;;;;;;3.48;79.02;102699.47;5051921;28;20106;-53
2022/03/06 09:10:10;;;;;;;14.60;7.88;;;;;;;3.66;78.58;102690.66;5052079;28;20091;-55
2022/03/06 09:12:39;;;;;;;12.98;7.35;;;;;;;3.89;76.84;102687.91;5052088;28;20092;-55
2022/03/06 09:15:08;;;;;;;13.75;7.78;;;;;;;3.95;76.71;102692.19;5051884;28;20041;-53
2022/03/06 09:17:38;;;;;;;12.13;6.68;;;;;;;4.14;75.34;102692.91;5052057;28;20049;-55
2022/03/06 09:20:07;;;;;;;14.43;7.30;;;;;;;4.04;74.56;102692.13;5051941;28;20044;-52
2022/03/06 09:22:35;;;;;;;11.30;7.00;;;;;;;3.88;75.08;102690.53;5051960;28;20052;-54
2022/03/06 09:25:04;;;;;;;11.23;6.60;;;;;;;4.01;74.07;102688.69;5051927;28;20084;-55
2022/03/06 09:27:32;;;;;;;13.23;6.78;;;;;;;4.23;73.15;102690.22;5051938;28;20059;-54
2022/03/06 09:30:00;;;;;;;12.40;7.20;;;;;;;4.67;72.27;102690.66;5051974;28;20041;-53
2022/03/06 09:32:28;;;;;;;10.77;6.28;;;;;;;4.91;71.64;102705.16;5051795;28;20053;-55
2022/03/06 09:34:58;;;;;;;9.40;5.72;;;;;;;5.23;70.09;102695.22;5054101;28;20052;-55
2022/03/06 09:37:26;;;;;;;12.65;6.30;;;;;;;5.20;69.10;102692.66;5055738;28;20045;-54
2022/03/06 09:39:54;;;;;;;10.52;6.50;;;;;;;5.18;67.91;102695.28;5055577;28;20044;-54
2022/03/06 09:42:22;;;;;;;10.88;5.93;;;;;;;5.30;67.57;102699.47;5055574;28;20036;-55
2022/03/06 09:44:51;;;;;;;9.75;6.55;;;;;;;5.41;66.69;102707.16;5055455;28;20053;-55
2022/03/06 09:47:19;;;;;;;11.90;5.60;;;;;;;5.64;65.16;102703.34;5055580;28;20049;-55
2022/03/06 09:49:48;;;;;;;10.82;5.35;;;;;;;5.49;63.98;102700.06;5055419;28;20053;-55
2022/03/06 09:52:17;;;;;;;9.35;5.53;;;;;;;5.65;65.13;102697.25;5055500;28;20056;-55
2022/03/06 09:54:46;;;;;;;9.13;5.38;;;;;;;5.95;65.38;102701.13;5055274;28;20041;-52
2022/03/06 09:57:19;;;;;;;9.82;5.20;;;;;;;6.25;64.73;102699.78;5054086;28;20098;-55
2022/03/06 09:59:47;;;;;;;9.20;5.03;;;;;;;6.53;62.18;102696.69;5055399;28;20041;-54
2022/03/06 10:02:16;;;;;;;11.10;5.60;;;;;;;6.89;61.17;102696.84;5055088;28;20060;-55
2022/03/06 10:04:47;;;;;;;10.40;5.25;;;;;;;6.80;60.48;102694.41;5054729;28;20073;-58
2022/03/06 10:07:19;;;;;;;10.57;5.60;;;;;;;6.57;60.02;102697.47;5055197;28;20037;-61
2022/03/06 10:09:48;;;;;;;10.45;5.50;;;;;;;6.46;60.00;102686.38;5054786;28;20435;-61
2022/03/06 10:12:20;;;;;;;10.07;5.60;;;;;;;6.86;60.30;102689.09;5054871;28;20516;-54
2022/03/06 10:14:49;;;;;;;;;;;;;;;6.78;59.43;102691.00;5055323;28;20060;-61
2022/03/06 10:17:19;;;;;;;10.32;5.32;;;;;;;7.13;57.99;102685.91;5054753;28;19928;-61
2022/03/06 10:19:53;;;;;;;10.50;5.38;;;;;;;7.05;58.00;102683.47;5054902;28;20085;-55
2022/03/06 10:22:24;;;;;;;9.65;5.53;;;;;;;7.23;57.45;102683.06;5055078;28;20040;-54
2022/03/06 10:24:54;;;;;;;9.60;5.35;;;;;;;7.21;57.31;102674.41;5054790;28;20056;-60
2022/03/06 10:27:46;;;;;;;10.73;5.22;;;;;;;7.58;56.17;102675.31;5054726;28;20052;-61
2022/03/06 10:30:30;;;;;;;10.50;5.85;;;;;;;8.07;56.08;102682.00;5054598;28;20434;-54
2022/03/06 10:33:00;;;;;;;10.40;5.53;;;;;;;7.75;55.10;102681.00;5053773;28;20514;-61
2022/03/06 10:35:36;;;;;;;12.40;5.50;;;;;;;7.82;54.77;102688.75;5054556;28;20294;-54
2022/03/06 10:38:23;;;;;;;9.43;5.03;;;;;;;8.16;54.65;102691.38;5054281;28;20052;-61
2022/03/06 10:40:51;;;;;;;9.90;5.50;;;;;;;8.61;52.69;102695.47;5054470;28;20056;-61
2022/03/06 10:43:21;;;;;;;9.27;5.15;;;;;;;8.68;52.16;102680.44;5054487;28;20045;-51
2022/03/06 10:45:51;;;;;;;10.40;6.40;;;;;;;8.61;52.21;102683.22;5053366;28;20112;-55
2022/03/06 10:48:22;;;;;;;9.85;5.53;;;;;;;8.60;50.37;102685.88;5054218;28;20522;-61
2022/03/06 10:50:59;;;;;;;10.43;5.85;;;;;;;8.63;49.77;102684.03;5054174;28;20052;-61
2022/03/06 10:53:29;;;;;;;10.68;5.65;;;;;;;8.55;49.88;102678.16;5054150;28;20446;-51
2022/03/06 10:56:07;;;;;;;9.27;5.50;;;;;;;8.92;48.05;102681.50;5054082;28;20130;-61
2022/03/06 10:58:38;;;;;;;9.80;5.60;;;;;;;8.87;48.13;102679.00;5054052;28;20049;-54
2022/03/06 11:01:27;;;;;;;10.73;5.70;;;;;;;9.26;48.74;102683.13;5054234;28;20036;-61
2022/03/06 11:03:58;;;;;;;10.95;5.20;;;;;;;8.99;47.96;102690.06;5054049;28;20045;-60
2022/03/06 11:06:28;;;;;;;9.00;5.68;;;;;;;9.37;47.67;102685.44;5053996;28;20040;-62
2022/03/06 11:08:57;;;;;;;9.32;5.20;;;;;;;9.63;45.88;102688.09;5053706;28;20043;-55
2022/03/06 11:11:26;;;;;;;9.95;5.70;;;;;;;9.67;45.33;102685.34;5053925;28;20523;-54
2022/03/06 11:13:55;;;;;;;9.93;5.63;;;;;;;9.73;45.15;102683.41;5053753;28;20536;-55
2022/03/06 11:16:24;;;;;;;9.65;5.88;;;;;;;9.41;43.07;102681.81;5053793;28;20508;-55
2022/03/06 11:18:58;;;;;;;7.72;5.03;;;;;;;9.16;43.87;102685.16;5053581;28;20049;-54
2022/03/06 11:21:28;;;;;;;10.05;5.32;;;;;;;9.68;43.47;102687.97;5053409;28;20083;-55